Time;durP1;ratioP1;P1;durP2;ratioP2;P2;SDS_P1;SDS_P2;PMS_P1;PMS_P2;Temp;Humidity;BMP_temperature;BMP_pressure;BME280_temperature;BME280_humidity;BME280_pressure;Samples;Min_cycle;Max_cycle;Signal;HPM_P1;HPM_P2
2022/12/30 00:01:12;;;;;;;10.65;2.78;;;;;;;;;;4935381;29;20073;-59
2022/12/30 00:03:40;;;;;;;10.20;2.80;;;;;;;;;;4934642;29;20716;-60
2022/12/30 00:06:14;;;;;;;9.15;2.38;;;;;;;;;;4934005;29;20480;-60
2022/12/30 00:08:47;;;;;;;6.97;2.08;;;;;;;;;;4934451;29;20058;-59
2022/12/30 00:11:15;;;;;;;12.52;3.67;;;;;;;;;;4916995;29;20048;-60
2022/12/30 00:33:08;;;;;;;7.85;2.72;;;;;;;;;;4933894;29;20177;-60
2022/12/30 00:35:35;;;;;;;10.82;3.15;;;;;;;;;;4933338;29;20052;-59
2022/12/30 00:38:01;;;;;;;13.45;2.92;;;;;;;;;;4917005;29;20095;-59
2022/12/30 00:40:28;;;;;;;10.27;2.47;;;;;;;;;;4934084;29;20505;-59
2022/12/30 00:43:09;;;;;;;8.48;2.45;;;;;;;;;;4934181;29;20047;-61
2022/12/30 00:45:41;;;;;;;10.20;2.65;;;;;;;;;;4933475;29;20118;-60
2022/12/30 00:56:23;;;;;;;10.43;3.35;;;;;;;;;;4916486;29;20051;-57
2022/12/30 00:58:49;;;;;;;11.57;2.83;;;;;;;;;;4933957;29;20035;-58
2022/12/30 01:01:16;;;;;;;6.80;2.80;;;;;;;;;;4934079;29;20082;-59
2022/12/30 01:03:42;;;;;;;10.10;2.45;;;;;;;;;;4933996;29;20047;-60
2022/12/30 01:06:10;;;;;;;11.27;2.70;;;;;;;;;;4933305;29;20099;-59
2022/12/30 01:08:36;;;;;;;8.60;3.00;;;;;;;;;;4919161;29;20099;-59
2022/12/30 01:11:07;;;;;;;7.32;2.30;;;;;;;;;;4937272;29;20044;-59
2022/12/30 01:13:33;;;;;;;11.55;2.60;;;;;;;;;;4920053;29;20098;-59
2022/12/30 01:16:07;;;;;;;9.00;2.55;;;;;;;;;;4936244;29;20054;-60
2022/12/30 01:18:34;;;;;;;11.38;3.28;;;;;;;;;;4937440;29;20138;-62
2022/12/30 01:21:01;;;;;;;11.65;2.35;;;;;;;;;;4937361;29;20405;-59
2022/12/30 01:23:27;;;;;;;5.50;2.20;;;;;;;;;;4937365;29;20048;-61
2022/12/30 01:25:54;;;;;;;9.20;2.42;;;;;;;;;;4937179;29;20044;-61
2022/12/30 01:28:20;;;;;;;8.80;2.28;;;;;;;;;;4938890;29;20047;-61
2022/12/30 01:30:46;;;;;;;10.93;2.22;;;;;;;;;;4938105;29;20506;-61
2022/12/30 01:33:13;;;;;;;11.93;2.55;;;;;;;;;;4937312;29;20040;-60
2022/12/30 01:35:39;;;;;;;9.90;2.00;;;;;;;;;;4936701;29;20047;-61
2022/12/30 01:38:05;;;;;;;11.15;2.53;;;;;;;;;;4937126;29;20051;-61
2022/12/30 01:40:37;;;;;;;11.60;2.88;;;;;;;;;;4937837;29;20044;-61
2022/12/30 01:43:04;;;;;;;10.85;2.58;;;;;;;;;;4922822;29;20067;-61
2022/12/30 01:45:30;;;;;;;8.20;2.25;;;;;;;;;;4941516;29;20396;-61
2022/12/30 01:47:57;;;;;;;15.18;2.75;;;;;;;;;;4939415;29;20075;-61
2022/12/30 01:50:23;;;;;;;10.00;2.50;;;;;;;;;;4919752;29;20412;-61
2022/12/30 01:52:53;;;;;;;10.40;2.20;;;;;;;;;;4936815;29;20184;-61
2022/12/30 01:55:34;;;;;;;8.80;2.33;;;;;;;;;;4919387;29;20501;-60
2022/12/30 01:58:03;;;;;;;13.57;3.05;;;;;;;;;;4936791;29;20067;-61
2022/12/30 02:00:29;;;;;;;8.57;2.33;;;;;;;;;;4936434;29;20504;-60
2022/12/30 02:02:56;;;;;;;9.38;2.30;;;;;;;;;;4936747;29;20461;-60
2022/12/30 02:05:24;;;;;;;9.00;2.08;;;;;;;;;;4936147;29;20051;-61
2022/12/30 02:07:55;;;;;;;12.63;2.42;;;;;;;;;;4938074;29;20046;-61
2022/12/30 02:10:21;;;;;;;17.48;3.17;;;;;;;;;;4922698;29;20118;-61
2022/12/30 02:12:48;;;;;;;13.98;2.40;;;;;;;;;;4937042;29;20404;-61
2022/12/30 02:15:14;;;;;;;11.35;2.60;;;;;;;;;;4935998;29;20114;-61
2022/12/30 02:17:59;;;;;;;9.63;2.45;;;;;;;;;;4936292;29;20044;-61
2022/12/30 02:20:35;;;;;;;11.30;2.83;;;;;;;;;;4935798;29;20048;-61
2022/12/30 02:23:20;;;;;;;6.63;2.13;;;;;;;;;;4936081;29;20043;-61
2022/12/30 02:26:16;;;;;;;7.80;2.45;;;;;;;;;;4935446;29;20055;-61
2022/12/30 02:29:11;;;;;;;7.80;2.10;;;;;;;;;;4936190;29;20076;-61
2022/12/30 02:31:45;;;;;;;9.85;2.30;;;;;;;;;;4919005;29;20444;-61
2022/12/30 02:34:21;;;;;;;11.73;2.50;;;;;;;;;;4936020;29;20039;-61
2022/12/30 02:37:03;;;;;;;7.00;2.33;;;;;;;;;;4935540;29;20440;-61
2022/12/30 02:39:40;;;;;;;12.00;2.28;;;;;;;;;;4919204;29;20106;-62
2022/12/30 02:45:08;;;;;;;10.32;2.50;;;;;;;;;;4935655;29;20051;-61
2022/12/30 02:47:43;;;;;;;8.82;2.28;;;;;;;;;;4920514;29;20568;-61
2022/12/30 02:53:01;;;;;;;6.88;2.90;;;;;;;;;;4937838;29;20044;-59
2022/12/30 02:55:27;;;;;;;11.98;3.22;;;;;;;;;;4936253;29;20044;-59
2022/12/30 02:57:53;;;;;;;12.73;3.72;;;;;;;;;;4937277;29;20044;-59
2022/12/30 03:06:13;;;;;;;14.23;3.35;;;;;;;;;;4934471;29;20043;-59
2022/12/30 03:08:47;;;;;;;17.15;4.43;;;;;;;;;;4935021;29;20047;-59
2022/12/30 03:11:17;;;;;;;11.38;3.90;;;;;;;;;;4934876;29;20039;-59
2022/12/30 03:13:50;;;;;;;10.05;3.60;;;;;;;;;;4902364;29;20048;-59
2022/12/30 03:16:20;;;;;;;10.20;4.38;;;;;;;;;;4934407;29;20401;-59
2022/12/30 03:18:47;;;;;;;13.15;3.45;;;;;;;;;;4935008;29;20078;-60
2022/12/30 03:21:14;;;;;;;16.75;3.97;;;;;;;;;;4917803;29;20103;-60
2022/12/30 03:29:18;;;;;;;10.90;4.28;;;;;;;;;;4934837;29;20043;-60
2022/12/30 03:31:44;;;;;;;16.77;3.40;;;;;;;;;;4933847;29;20058;-59
2022/12/30 03:34:11;;;;;;;13.05;3.03;;;;;;;;;;4934635;29;20044;-61
2022/12/30 03:36:39;;;;;;;14.45;2.97;;;;;;;;;;4934045;29;20048;-60
2022/12/30 03:39:08;;;;;;;8.40;4.60;;;;;;;;;;4934674;29;20416;-60
2022/12/30 03:41:35;;;;;;;15.00;6.72;;;;;;;;;;4917496;29;20047;-60
2022/12/30 03:44:02;;;;;;;8.27;3.67;;;;;;;;;;4934472;29;20047;-60
2022/12/30 03:46:30;;;;;;;13.73;3.10;;;;;;;;;;4933534;29;20406;-60
2022/12/30 03:48:57;;;;;;;13.65;3.72;;;;;;;;;;4917487;29;20083;-59
2022/12/30 03:51:23;;;;;;;10.75;3.22;;;;;;;;;;4917249;29;20138;-60
2022/12/30 03:53:49;;;;;;;12.57;3.08;;;;;;;;;;4934882;29;20044;-60
2022/12/30 03:56:16;;;;;;;9.85;3.33;;;;;;;;;;4916819;29;20052;-58
2022/12/30 03:58:42;;;;;;;11.40;3.55;;;;;;;;;;4934569;29;20036;-59
2022/12/30 04:01:09;;;;;;;13.88;3.47;;;;;;;;;;4934284;29;20043;-58
2022/12/30 04:03:35;;;;;;;5.88;3.33;;;;;;;;;;4934645;29;20165;-60
2022/12/30 04:06:02;;;;;;;10.50;3.63;;;;;;;;;;4934255;29;20158;-59
2022/12/30 04:08:28;;;;;;;7.65;2.65;;;;;;;;;;4935004;29;20044;-59
2022/12/30 04:10:54;;;;;;;10.88;2.95;;;;;;;;;;4935389;29;20043;-60
2022/12/30 04:13:21;;;;;;;12.27;3.10;;;;;;;;;;4935324;29;20044;-59
2022/12/30 04:15:49;;;;;;;11.30;3.50;;;;;;;;;;4934274;29;20373;-60
2022/12/30 04:18:15;;;;;;;10.40;3.00;;;;;;;;;;4934895;29;20044;-60
2022/12/30 04:20:42;;;;;;;14.30;3.08;;;;;;;;;;4917609;29;20099;-59
2022/12/30 04:23:08;;;;;;;11.98;3.00;;;;;;;;;;4917693;29;20556;-59
2022/12/30 04:25:35;;;;;;;11.52;3.17;;;;;;;;;;4933923;29;20052;-59
2022/12/30 04:28:01;;;;;;;8.25;2.80;;;;;;;;;;4934560;29;20044;-58
2022/12/30 04:30:27;;;;;;;13.68;3.05;;;;;;;;;;4934446;29;20516;-58
2022/12/30 04:32:57;;;;;;;8.65;2.42;;;;;;;;;;4934791;29;20106;-59
2022/12/30 04:35:29;;;;;;;8.18;2.55;;;;;;;;;;4934398;29;20043;-58
2022/12/30 04:37:56;;;;;;;9.55;2.35;;;;;;;;;;4934757;29;20095;-59
2022/12/30 04:40:22;;;;;;;14.25;2.85;;;;;;;;;;4934608;29;20453;-58
2022/12/30 04:42:49;;;;;;;11.80;2.88;;;;;;;;;;4935839;29;20063;-58
2022/12/30 04:45:15;;;;;;;11.45;2.65;;;;;;;;;;4937765;29;20472;-58
2022/12/30 04:47:41;;;;;;;11.05;3.22;;;;;;;;;;4938161;29;20043;-59
2022/12/30 04:50:08;;;;;;;9.68;2.63;;;;;;;;;;4921217;29;20044;-58
2022/12/30 04:52:34;;;;;;;9.15;2.58;;;;;;;;;;4938104;29;20043;-59
2022/12/30 04:55:00;;;;;;;7.53;2.20;;;;;;;;;;4937399;29;20054;-60
2022/12/30 04:57:27;;;;;;;15.20;2.92;;;;;;;;;;4937681;29;20416;-59
2022/12/30 04:59:53;;;;;;;15.80;3.30;;;;;;;;;;4938026;29;20404;-59
2022/12/30 05:02:20;;;;;;;8.75;2.55;;;;;;;;;;5333750;23;20067;-60
2022/12/30 05:04:46;;;;;;;9.98;2.38;;;;;;;;;;4936066;29;20050;-61
2022/12/30 05:07:13;;;;;;;7.35;2.60;;;;;;;;;;4920262;29;20044;-61
2022/12/30 05:09:39;;;;;;;9.30;2.40;;;;;;;;;;4937525;29;20040;-60
2022/12/30 05:12:06;;;;;;;13.00;2.90;;;;;;;;;;4937428;29;20043;-60
2022/12/30 05:14:32;;;;;;;10.50;2.17;;;;;;;;;;4937644;29;20040;-61
2022/12/30 05:16:59;;;;;;;11.82;2.38;;;;;;;;;;4937103;29;20052;-61
2022/12/30 05:19:25;;;;;;;11.05;2.50;;;;;;;;;;4937816;29;20043;-61
2022/12/30 05:21:51;;;;;;;11.35;2.58;;;;;;;;;;4937823;29;20044;-61
2022/12/30 05:27:03;;;;;;;8.15;2.70;;;;;;;;;;4936858;29;20047;-61
2022/12/30 05:29:29;;;;;;;10.93;2.60;;;;;;;;;;4920262;29;20056;-62
2022/12/30 05:31:55;;;;;;;12.80;2.88;;;;;;;;;;4937213;29;20457;-62
2022/12/30 05:34:22;;;;;;;9.70;2.42;;;;;;;;;;4937294;29;20047;-61
2022/12/30 05:36:48;;;;;;;6.43;2.42;;;;;;;;;;4936738;29;20039;-62
2022/12/30 05:39:15;;;;;;;10.52;2.10;;;;;;;;;;4937145;29;20098;-62
2022/12/30 05:41:41;;;;;;;6.45;2.10;;;;;;;;;;4937062;29;20089;-62
2022/12/30 05:44:07;;;;;;;10.32;2.15;;;;;;;;;;4937222;29;20086;-63
2022/12/30 05:46:34;;;;;;;7.18;1.90;;;;;;;;;;4936493;29;20456;-63
2022/12/30 05:49:00;;;;;;;9.85;2.92;;;;;;;;;;4919936;29;20055;-63
2022/12/30 05:51:27;;;;;;;11.65;2.30;;;;;;;;;;4937058;29;20416;-63
2022/12/30 05:53:53;;;;;;;9.55;2.40;;;;;;;;;;4936255;29;20055;-62
2022/12/30 05:56:19;;;;;;;8.80;2.38;;;;;;;;;;4936348;29;20052;-63
2022/12/30 05:58:46;;;;;;;7.53;2.00;;;;;;;;;;4937007;29;20095;-61
2022/12/30 06:01:12;;;;;;;8.23;1.92;;;;;;;;;;4936800;29;20492;-61
2022/12/30 06:03:39;;;;;;;10.68;2.70;;;;;;;;;;4936689;29;20500;-60
2022/12/30 06:06:07;;;;;;;4.68;1.92;;;;;;;;;;4935985;29;20048;-61
2022/12/30 06:08:33;;;;;;;7.57;1.90;;;;;;;;;;4936555;29;20492;-61
2022/12/30 06:11:00;;;;;;;7.10;2.17;;;;;;;;;;4936736;29;20107;-62
2022/12/30 06:13:26;;;;;;;10.85;2.00;;;;;;;;;;4936466;29;20044;-61
2022/12/30 06:15:53;;;;;;;5.72;2.10;;;;;;;;;;4918779;29;20040;-61
2022/12/30 06:18:19;;;;;;;8.38;1.95;;;;;;;;;;4935969;29;20398;-61
2022/12/30 06:20:46;;;;;;;9.55;2.35;;;;;;;;;;4936478;29;20043;-62
2022/12/30 06:23:13;;;;;;;8.30;1.80;;;;;;;;;;4919342;29;20110;-60
2022/12/30 06:25:40;;;;;;;9.18;2.42;;;;;;;;;;4918648;29;20055;-61
2022/12/30 06:28:06;;;;;;;7.88;2.28;;;;;;;;;;4936485;29;20138;-61
2022/12/30 06:30:33;;;;;;;5.80;2.05;;;;;;;;;;4936479;29;20135;-61
2022/12/30 06:32:59;;;;;;;6.22;1.98;;;;;;;;;;4936371;29;20044;-62
2022/12/30 06:35:26;;;;;;;9.90;2.30;;;;;;;;;;4935852;29;20046;-63
2022/12/30 06:37:52;;;;;;;8.27;2.13;;;;;;;;;;4919265;29;20044;-61
2022/12/30 06:40:20;;;;;;;7.72;1.70;;;;;;;;;;4936169;29;20142;-62
2022/12/30 06:42:48;;;;;;;5.32;1.80;;;;;;;;;;4945832;29;20075;-63
2022/12/30 06:45:28;;;;;;;8.18;2.42;;;;;;;;;;4920276;29;20118;-62
2022/12/30 06:47:54;;;;;;;5.22;1.63;;;;;;;;;;4936636;29;20585;-61
2022/12/30 06:50:22;;;;;;;3.55;1.73;;;;;;;;;;4936140;29;20062;-62
2022/12/30 06:52:48;;;;;;;9.40;1.88;;;;;;;;;;4918675;29;20059;-62
2022/12/30 06:55:15;;;;;;;5.30;1.90;;;;;;;;;;4935273;29;20416;-62
2022/12/30 06:57:41;;;;;;;6.15;2.15;;;;;;;;;;4935787;29;20043;-62
2022/12/30 07:00:08;;;;;;;5.00;1.90;;;;;;;;;;4935631;29;20099;-62
2022/12/30 07:02:34;;;;;;;8.20;2.33;;;;;;;;;;4935890;29;20126;-62
2022/12/30 07:05:01;;;;;;;6.00;1.80;;;;;;;;;;4918240;29;20048;-62
2022/12/30 07:07:27;;;;;;;7.10;2.00;;;;;;;;;;4935963;29;20066;-62
2022/12/30 07:09:54;;;;;;;9.65;2.70;;;;;;;;;;4935844;29;20055;-64
2022/12/30 07:12:20;;;;;;;3.95;1.98;;;;;;;;;;4919043;29;20119;-61
2022/12/30 07:14:47;;;;;;;7.05;2.28;;;;;;;;;;4936020;29;20388;-61
2022/12/30 07:17:13;;;;;;;9.63;2.00;;;;;;;;;;4935394;29;20048;-61
2022/12/30 07:19:39;;;;;;;9.27;2.10;;;;;;;;;;4919245;29;20051;-61
2022/12/30 07:22:06;;;;;;;7.95;1.52;;;;;;;;;;4919080;29;20114;-61
2022/12/30 07:24:32;;;;;;;10.07;2.20;;;;;;;;;;4918983;29;20059;-61
2022/12/30 07:26:59;;;;;;;8.77;2.70;;;;;;;;;;4918133;29;20058;-62
2022/12/30 07:29:25;;;;;;;6.43;2.38;;;;;;;;;;4918782;29;20600;-62
2022/12/30 07:31:52;;;;;;;9.00;2.85;;;;;;;;;;4918683;29;20049;-61
2022/12/30 07:34:18;;;;;;;6.30;2.17;;;;;;;;;;4918915;29;20050;-62
2022/12/30 07:36:45;;;;;;;6.45;2.80;;;;;;;;;;4934764;29;20043;-62
2022/12/30 07:39:11;;;;;;;6.15;2.33;;;;;;;;;;4935212;29;20050;-62
2022/12/30 07:41:38;;;;;;;8.70;2.10;;;;;;;;;;4934934;29;20040;-63
2022/12/30 07:44:09;;;;;;;5.57;2.33;;;;;;;;;;4918026;29;20076;-62
2022/12/30 07:46:36;;;;;;;6.47;2.17;;;;;;;;;;4934498;29;20072;-62
2022/12/30 07:49:03;;;;;;;7.32;2.10;;;;;;;;;;4934913;29;20448;-62
2022/12/30 07:51:29;;;;;;;12.82;2.85;;;;;;;;;;4935113;29;20050;-63
2022/12/30 07:53:57;;;;;;;7.38;3.20;;;;;;;;;;4935286;29;20044;-62
2022/12/30 07:56:32;;;;;;;6.28;3.10;;;;;;;;;;4935333;29;20078;-62
2022/12/30 07:58:59;;;;;;;7.22;3.35;;;;;;;;;;4918507;29;20099;-61
2022/12/30 08:01:25;;;;;;;5.82;1.70;;;;;;;;;;4935026;29;20118;-62
2022/12/30 08:03:52;;;;;;;9.43;2.92;;;;;;;;;;4918416;29;20079;-62
2022/12/30 08:06:18;;;;;;;6.10;2.45;;;;;;;;;;4934515;29;20051;-62
2022/12/30 08:08:45;;;;;;;7.47;2.78;;;;;;;;;;4918170;29;20052;-62
2022/12/30 08:11:12;;;;;;;7.75;2.83;;;;;;;;;;4934965;29;20076;-62
2022/12/30 08:13:40;;;;;;;9.23;2.72;;;;;;;;;;4917926;29;20051;-62
2022/12/30 08:16:08;;;;;;;7.15;1.95;;;;;;;;;;4934448;29;20044;-62
2022/12/30 08:18:35;;;;;;;7.85;1.83;;;;;;;;;;4920771;29;20035;-63
2022/12/30 08:21:02;;;;;;;14.07;3.38;;;;;;;;;;4921660;29;20067;-62
2022/12/30 08:23:29;;;;;;;9.60;2.22;;;;;;;;;;4939198;29;20059;-62
2022/12/30 08:25:56;;;;;;;3.78;1.90;;;;;;;;;;4921710;29;20040;-62
2022/12/30 08:28:22;;;;;;;5.60;1.92;;;;;;;;;;4921995;29;20059;-62
2022/12/30 08:30:49;;;;;;;6.47;2.10;;;;;;;;;;4921698;29;20047;-62
2022/12/30 08:33:15;;;;;;;9.30;2.15;;;;;;;;;;4938756;29;20091;-63
2022/12/30 08:35:48;;;;;;;8.13;1.98;;;;;;;;;;4938299;29;20036;-63
2022/12/30 08:38:14;;;;;;;7.32;2.03;;;;;;;;;;4921750;29;20051;-61
2022/12/30 08:40:41;;;;;;;6.45;2.05;;;;;;;;;;4938404;29;20040;-62
2022/12/30 08:43:07;;;;;;;9.23;2.67;;;;;;;;;;4938333;29;20095;-62
2022/12/30 08:45:34;;;;;;;5.47;2.22;;;;;;;;;;4937869;29;20047;-62
2022/12/30 08:48:00;;;;;;;5.03;2.55;;;;;;;;;;4938186;29;20051;-63
2022/12/30 08:50:27;;;;;;;6.40;2.00;;;;;;;;;;4938026;29;20044;-62
2022/12/30 08:52:54;;;;;;;7.63;2.15;;;;;;;;;;4938032;29;20134;-61
2022/12/30 08:55:20;;;;;;;9.27;2.40;;;;;;;;;;4920914;29;20043;-62
2022/12/30 08:57:46;;;;;;;4.60;1.70;;;;;;;;;;4938493;29;20051;-61
2022/12/30 09:00:14;;;;;;;4.53;1.77;;;;;;;;;;4921250;29;20135;-62
2022/12/30 09:02:41;;;;;;;3.28;1.55;;;;;;;;;;4938213;29;20098;-62
2022/12/30 09:05:08;;;;;;;6.82;2.45;;;;;;;;;;4920368;29;20420;-61
2022/12/30 09:07:34;;;;;;;5.45;2.25;;;;;;;;;;4937994;29;20044;-62
2022/12/30 09:10:20;;;;;;;5.05;1.92;;;;;;;;;;4921086;29;20048;-61
2022/12/30 09:12:47;;;;;;;5.85;1.85;;;;;;;;;;4937844;29;20095;-61
2022/12/30 09:15:13;;;;;;;6.18;1.85;;;;;;;;;;4937155;29;20059;-61
2022/12/30 09:17:40;;;;;;;3.78;1.63;;;;;;;;;;4937634;29;20047;-62
2022/12/30 09:20:06;;;;;;;4.88;1.98;;;;;;;;;;4937957;29;20519;-62
2022/12/30 09:22:33;;;;;;;3.65;1.50;;;;;;;;;;4938054;29;20058;-61
2022/12/30 09:24:59;;;;;;;8.43;1.92;;;;;;;;;;4920809;29;20058;-61
2022/12/30 09:27:26;;;;;;;3.42;1.60;;;;;;;;;;4937670;29;20527;-62
2022/12/30 09:29:53;;;;;;;2.80;1.40;;;;;;;;;;4936375;29;20044;-61
2022/12/30 09:32:20;;;;;;;4.30;1.70;;;;;;;;;;4937367;29;20941;-61
2022/12/30 09:34:46;;;;;;;5.00;1.95;;;;;;;;;;4938033;29;20051;-62
2022/12/30 09:37:14;;;;;;;4.07;1.80;;;;;;;;;;4905909;29;20047;-62
2022/12/30 09:39:44;;;;;;;7.28;2.22;;;;;;;;;;4922589;29;20044;-62
2022/12/30 09:45:02;;;;;;;4.55;1.48;;;;;;;;;;4941679;29;20493;-63
2022/12/30 09:47:31;;;;;;;3.83;1.20;;;;;;;;;;4940463;29;20052;-63
2022/12/30 09:50:01;;;;;;;4.05;1.42;;;;;;;;;;4938497;29;20047;-62
2022/12/30 09:52:37;;;;;;;3.53;1.25;;;;;;;;;;4938380;29;20116;-62
2022/12/30 09:55:06;;;;;;;5.03;1.10;;;;;;;;;;4937212;29;20047;-63
2022/12/30 09:57:34;;;;;;;2.72;1.20;;;;;;;;;;4937525;29;20052;-62
2022/12/30 10:00:04;;;;;;;4.10;1.17;;;;;;;;;;4920297;29;20051;-62
2022/12/30 10:02:51;;;;;;;4.38;1.17;;;;;;;;;;4936946;29;20429;-62
2022/12/30 10:05:24;;;;;;;5.15;1.25;;;;;;;;;;4936341;29;20572;-62
2022/12/30 10:07:57;;;;;;;4.60;2.03;;;;;;;;;;4937096;29;20056;-63
2022/12/30 10:10:27;;;;;;;3.43;1.17;;;;;;;;;;4920319;29;20063;-63
2022/12/30 10:13:04;;;;;;;2.05;0.95;;;;;;;;;;4936647;29;20040;-61
2022/12/30 10:15:39;;;;;;;1.92;0.93;;;;;;;;;;4936531;29;20040;-62
2022/12/30 10:18:18;;;;;;;2.35;1.02;;;;;;;;;;4936972;29;20054;-61
2022/12/30 10:20:50;;;;;;;2.53;1.25;;;;;;;;;;4937112;29;20127;-63
